createdAt,value
2017-06-05T00:01:14.668Z,13.00
2017-06-05T00:03:42.776Z,12.90
2017-06-05T00:06:10.861Z,12.90
2017-06-05T00:08:38.949Z,13.30
2017-06-05T00:11:07.040Z,13.50
2017-06-05T00:13:35.236Z,13.70
2017-06-05T00:16:03.330Z,13.80
2017-06-05T00:18:31.418Z,13.80
2017-06-05T00:20:59.504Z,13.60
2017-06-05T00:23:27.611Z,13.40
2017-06-05T00:25:55.707Z,13.50
2017-06-05T00:28:23.792Z,13.50
2017-06-05T00:30:51.889Z,13.50
2017-06-05T00:33:19.979Z,13.20
2017-06-05T00:35:48.074Z,13.50
2017-06-05T00:38:16.161Z,13.40
2017-06-05T00:40:44.251Z,13.20
2017-06-05T00:43:12.342Z,13.10
2017-06-05T00:45:40.419Z,13.20
2017-06-05T00:48:08.537Z,13.30
2017-06-05T00:50:36.614Z,13.40
2017-06-05T00:53:04.699Z,13.30
2017-06-05T00:55:32.788Z,13.10
2017-06-05T00:58:00.880Z,12.90
2017-06-05T01:00:28.973Z,12.90
2017-06-05T01:02:57.051Z,12.90
2017-06-05T01:05:25.147Z,12.90
2017-06-05T01:07:53.224Z,12.80
2017-06-05T01:10:21.337Z,12.90
2017-06-05T01:12:49.423Z,13.00
2017-06-05T01:15:17.503Z,13.20
2017-06-05T01:17:45.594Z,13.20
2017-06-05T01:20:13.684Z,12.90
2017-06-05T01:22:41.771Z,12.70
2017-06-05T01:25:09.884Z,12.80
2017-06-05T01:27:37.979Z,12.90
2017-06-05T01:30:06.068Z,13.10
2017-06-05T01:32:34.177Z,13.20
2017-06-05T01:35:02.258Z,13.30
2017-06-05T01:37:30.343Z,13.30
2017-06-05T01:39:58.435Z,13.20
2017-06-05T01:42:26.530Z,13.20
2017-06-05T01:44:54.632Z,13.40
2017-06-05T01:47:22.716Z,13.50
2017-06-05T01:49:50.807Z,13.40
2017-06-05T01:52:18.898Z,13.10
2017-06-05T01:54:46.976Z,12.70
2017-06-05T01:57:15.071Z,12.90
2017-06-05T01:59:43.149Z,13.00
2017-06-05T02:02:11.239Z,12.80
2017-06-05T02:04:40.214Z,12.70
2017-06-05T02:07:08.333Z,12.80
2017-06-05T02:09:36.419Z,13.00
2017-06-05T02:12:04.510Z,13.20
2017-06-05T02:14:32.607Z,13.10
2017-06-05T02:17:00.699Z,13.20
2017-06-05T02:19:28.795Z,13.20
2017-06-05T02:21:56.882Z,13.30
2017-06-05T02:24:24.967Z,13.30
2017-06-05T02:26:53.047Z,13.20
2017-06-05T02:29:21.161Z,13.20
2017-06-05T02:31:49.243Z,13.50
2017-06-05T02:34:17.331Z,13.50
2017-06-05T02:36:45.426Z,13.40
2017-06-05T02:39:13.504Z,13.00
2017-06-05T02:41:41.591Z,13.00
2017-06-05T02:44:09.764Z,13.10
2017-06-05T02:46:37.877Z,13.10
2017-06-05T02:49:05.956Z,13.00
2017-06-05T02:51:34.036Z,12.90
2017-06-05T02:54:02.124Z,12.80
2017-06-05T02:56:30.207Z,12.90
2017-06-05T02:58:58.299Z,13.20
2017-06-05T03:01:26.393Z,13.20
2017-06-05T03:03:54.575Z,13.20
2017-06-05T03:06:22.671Z,13.10
2017-06-05T03:08:50.755Z,13.00
2017-06-05T03:11:18.860Z,13.10
2017-06-05T03:13:47.011Z,13.20
2017-06-05T03:16:15.142Z,13.30
2017-06-05T03:18:43.282Z,13.20
2017-06-05T03:21:11.471Z,13.30
2017-06-05T03:23:39.560Z,13.40
2017-06-05T03:26:07.679Z,13.40
2017-06-05T03:28:35.768Z,13.20
2017-06-05T03:31:03.854Z,13.30
2017-06-05T03:33:31.940Z,13.30
2017-06-05T03:36:00.031Z,13.20
2017-06-05T03:38:28.119Z,13.20
2017-06-05T03:40:56.204Z,13.30
2017-06-05T03:43:24.349Z,13.30
2017-06-05T03:45:52.428Z,13.50
2017-06-05T03:48:20.515Z,13.30
2017-06-05T03:50:48.607Z,13.40
2017-06-05T03:53:16.691Z,13.10
2017-06-05T03:55:44.792Z,13.30
2017-06-05T03:58:12.876Z,13.60
2017-06-05T04:00:40.979Z,13.80
2017-06-05T04:03:09.060Z,14.00
2017-06-05T04:05:37.160Z,14.00
2017-06-05T04:08:05.254Z,14.10
2017-06-05T04:10:33.350Z,13.70
2017-06-05T04:13:01.504Z,13.90
2017-06-05T04:15:29.590Z,13.80
2017-06-05T04:17:57.687Z,13.70
2017-06-05T04:20:25.770Z,13.70
2017-06-05T04:22:53.863Z,14.00
2017-06-05T04:25:21.957Z,14.10
2017-06-05T04:27:50.042Z,14.20
2017-06-05T04:30:18.128Z,14.30
2017-06-05T04:32:46.244Z,14.20
2017-06-05T04:35:14.332Z,14.20
2017-06-05T04:37:42.425Z,14.20
2017-06-05T04:40:10.524Z,14.20
2017-06-05T04:42:38.600Z,14.20
2017-06-05T04:45:06.692Z,14.10
2017-06-05T04:47:34.780Z,14.20
2017-06-05T04:50:02.872Z,14.20
2017-06-05T04:52:30.954Z,14.20
2017-06-05T04:54:59.071Z,14.20
2017-06-05T04:57:27.152Z,14.30
2017-06-05T04:59:55.248Z,14.40
2017-06-05T05:02:23.331Z,14.50
2017-06-05T05:04:51.415Z,14.50
2017-06-05T05:07:19.529Z,14.60
2017-06-05T05:09:47.612Z,14.70
2017-06-05T05:12:15.699Z,14.50
2017-06-05T05:14:43.779Z,14.30
2017-06-05T05:17:11.904Z,14.40
2017-06-05T05:19:39.989Z,14.40
2017-06-05T05:22:08.075Z,14.30
2017-06-05T05:24:36.159Z,14.50
2017-06-05T05:27:04.241Z,14.70
2017-06-05T05:29:32.332Z,14.90
2017-06-05T05:32:00.416Z,15.10
2017-06-05T05:34:28.508Z,15.10
2017-06-05T05:36:56.604Z,15.10
2017-06-05T05:39:24.720Z,15.20
2017-06-05T05:41:52.804Z,15.30
2017-06-05T05:44:20.891Z,15.40
2017-06-05T05:46:48.980Z,15.40
2017-06-05T05:49:17.067Z,15.50
2017-06-05T05:51:45.157Z,15.60
2017-06-05T05:54:13.240Z,15.50
2017-06-05T05:56:41.340Z,15.50
2017-06-05T05:59:09.419Z,15.60
2017-06-05T06:01:37.535Z,15.80
2017-06-05T06:04:05.669Z,15.90
2017-06-05T06:06:33.750Z,16.00
2017-06-05T06:09:01.840Z,16.00
2017-06-05T06:11:29.916Z,16.00
2017-06-05T06:13:58.221Z,16.10
2017-06-05T06:16:26.487Z,16.10
2017-06-05T06:18:54.579Z,16.00
2017-06-05T06:21:22.667Z,16.00
2017-06-05T06:23:50.852Z,16.10
2017-06-05T06:26:18.950Z,15.90
2017-06-05T06:28:47.244Z,16.00
2017-06-05T06:31:15.335Z,16.10
2017-06-05T06:33:43.585Z,16.20
2017-06-05T06:36:11.661Z,16.30
2017-06-05T06:38:39.751Z,16.30
2017-06-05T06:41:07.843Z,15.70
2017-06-05T06:43:35.937Z,16.10
2017-06-05T06:46:04.028Z,16.30
2017-06-05T06:48:32.111Z,16.40
2017-06-05T06:51:00.201Z,16.40
2017-06-05T06:53:28.299Z,16.50
2017-06-05T06:55:56.381Z,16.50
2017-06-05T06:58:24.470Z,16.40
2017-06-05T07:00:52.551Z,16.30
2017-06-05T07:03:20.643Z,16.40
2017-06-05T07:05:48.723Z,16.40
2017-06-05T07:08:16.815Z,16.30
2017-06-05T07:10:44.899Z,16.30
2017-06-05T07:13:13.016Z,16.40
2017-06-05T07:15:41.104Z,16.40
2017-06-05T07:18:09.185Z,16.50
2017-06-05T07:20:37.279Z,16.40
2017-06-05T07:23:05.369Z,16.60
2017-06-05T07:25:33.462Z,16.50
2017-06-05T07:28:01.556Z,16.70
2017-06-05T07:30:29.639Z,16.70
2017-06-05T07:32:57.728Z,16.70
2017-06-05T07:35:25.845Z,16.80
2017-06-05T07:37:53.929Z,16.90
2017-06-05T07:40:22.007Z,17.10
2017-06-05T07:42:50.103Z,17.00
2017-06-05T07:45:18.176Z,17.10
2017-06-05T07:47:46.272Z,17.20
2017-06-05T07:50:14.355Z,17.20
2017-06-05T07:52:42.642Z,17.30
2017-06-05T07:55:10.734Z,17.40
2017-06-05T07:57:38.839Z,17.30
2017-06-05T08:00:06.939Z,17.40
2017-06-05T08:02:35.020Z,17.70
2017-06-05T08:05:03.114Z,17.80
2017-06-05T08:07:31.196Z,17.90
2017-06-05T08:09:59.297Z,17.90
2017-06-05T08:12:27.384Z,18.10
2017-06-05T08:14:55.692Z,18.00
2017-06-05T08:17:23.775Z,18.00
2017-06-05T08:19:51.869Z,18.20
2017-06-05T08:22:19.970Z,18.30
2017-06-05T08:24:48.047Z,18.40
2017-06-05T08:27:16.136Z,18.40
2017-06-05T08:29:44.220Z,18.50
2017-06-05T08:32:12.313Z,18.70
2017-06-05T08:34:40.398Z,18.70
2017-06-05T08:37:08.504Z,18.80
2017-06-05T08:39:36.602Z,18.90
2017-06-05T08:42:04.691Z,19.00
2017-06-05T08:44:32.781Z,19.00
2017-06-05T08:47:00.867Z,19.00
2017-06-05T08:49:28.955Z,19.30
2017-06-05T08:51:57.712Z,19.60
2017-06-05T08:54:25.799Z,20.00
2017-06-05T08:56:53.890Z,20.40
2017-06-05T08:59:21.995Z,20.50
2017-06-05T09:01:50.084Z,20.80
2017-06-05T09:04:18.499Z,21.10
2017-06-05T09:06:46.815Z,20.70
2017-06-05T09:09:14.895Z,21.00
2017-06-05T09:11:42.991Z,21.40
2017-06-05T09:14:11.316Z,21.70
2017-06-05T09:16:39.498Z,21.80
2017-06-05T09:19:07.688Z,21.70
2017-06-05T09:21:35.804Z,21.40
2017-06-05T09:24:03.927Z,21.50
2017-06-05T09:26:32.033Z,21.70
2017-06-05T09:29:00.151Z,21.20
2017-06-05T09:31:28.245Z,20.40
2017-06-05T09:33:56.397Z,21.00
2017-06-05T09:36:24.506Z,21.20
2017-06-05T09:38:52.603Z,21.30
2017-06-05T09:41:20.691Z,21.60
2017-06-05T09:43:48.804Z,21.90
2017-06-05T09:46:16.882Z,22.00
2017-06-05T09:48:45.277Z,22.50
2017-06-05T09:51:13.370Z,22.10
2017-06-05T09:53:41.455Z,22.20
2017-06-05T09:56:09.552Z,22.50
2017-06-05T09:58:37.631Z,23.30
2017-06-05T10:01:05.721Z,23.50
2017-06-05T10:03:33.831Z,24.20
2017-06-05T10:06:01.973Z,24.40
2017-06-05T10:08:30.055Z,23.60
2017-06-05T10:10:58.144Z,23.50
2017-06-05T10:13:26.229Z,23.40
2017-06-05T10:15:54.304Z,21.10
2017-06-05T10:18:22.387Z,21.10
2017-06-05T10:20:50.466Z,21.10
2017-06-05T10:23:18.548Z,21.50
2017-06-05T10:25:46.627Z,22.00
2017-06-05T10:28:14.754Z,22.30
2017-06-05T10:30:42.871Z,22.50
2017-06-05T10:33:10.939Z,22.40
2017-06-05T10:35:39.029Z,21.80
2017-06-05T10:38:07.108Z,22.10
2017-06-05T10:40:35.213Z,22.60
2017-06-05T10:43:03.300Z,22.80
2017-06-05T10:45:31.387Z,23.10
2017-06-05T10:47:59.471Z,23.20
2017-06-05T10:50:27.583Z,23.30
2017-06-05T10:52:55.659Z,23.40
2017-06-05T10:55:23.743Z,23.30
2017-06-05T10:57:51.838Z,22.40
2017-06-05T11:00:19.927Z,22.10
2017-06-05T11:02:48.015Z,22.60
2017-06-05T11:05:16.107Z,22.70
2017-06-05T11:07:44.203Z,22.80
2017-06-05T11:10:12.287Z,22.70
2017-06-05T11:12:41.267Z,22.80
2017-06-05T11:15:09.343Z,22.70
2017-06-05T11:17:37.431Z,22.90
2017-06-05T11:20:05.508Z,23.10
2017-06-05T11:22:33.578Z,23.20
2017-06-05T11:25:01.665Z,22.90
2017-06-05T11:27:29.746Z,23.50
2017-06-05T11:29:57.831Z,23.50
2017-06-05T11:32:25.905Z,24.10
2017-06-05T11:34:54.015Z,24.00
2017-06-05T11:37:22.095Z,23.90
2017-06-05T11:39:50.954Z,23.10
2017-06-05T11:42:19.130Z,23.10
2017-06-05T11:44:47.219Z,22.00
2017-06-05T11:47:15.307Z,22.00
2017-06-05T11:49:43.385Z,21.90
2017-06-05T11:52:11.619Z,22.00
2017-06-05T11:54:40.353Z,21.70
2017-06-05T11:57:08.885Z,21.40
2017-06-05T11:59:37.159Z,21.20
2017-06-05T12:02:05.270Z,21.30
2017-06-05T12:04:33.351Z,21.30
2017-06-05T12:07:01.429Z,21.40
2017-06-05T12:09:29.544Z,21.40
2017-06-05T12:11:57.625Z,21.20
2017-06-05T12:14:25.701Z,21.10
2017-06-05T12:16:53.783Z,20.90
2017-06-05T12:19:21.867Z,20.90
2017-06-05T12:21:49.952Z,20.80
2017-06-05T12:24:18.028Z,20.60
2017-06-05T12:26:46.121Z,20.40
2017-06-05T12:29:14.195Z,20.50
2017-06-05T12:31:42.287Z,20.00
2017-06-05T12:34:10.371Z,19.70
2017-06-05T12:36:38.446Z,19.70
2017-06-05T12:39:06.542Z,19.80
2017-06-05T12:41:34.612Z,19.60
2017-06-05T12:44:02.695Z,19.60
2017-06-05T12:46:30.779Z,19.40
2017-06-05T12:48:58.871Z,19.10
2017-06-05T12:51:26.956Z,19.20
2017-06-05T12:53:55.060Z,18.70
2017-06-05T12:56:23.145Z,19.00
2017-06-05T12:58:51.231Z,19.10
2017-06-05T13:01:19.327Z,19.00
2017-06-05T13:03:47.415Z,18.90
2017-06-05T13:06:15.513Z,18.90
2017-06-05T13:08:43.604Z,18.80
2017-06-05T13:11:11.704Z,18.50
2017-06-05T13:13:39.784Z,18.40
2017-06-05T13:16:07.882Z,18.40
2017-06-05T13:18:35.976Z,18.50
2017-06-05T13:21:04.089Z,18.40
2017-06-05T13:23:32.167Z,18.40
2017-06-05T13:26:01.019Z,18.50
2017-06-05T13:28:29.210Z,18.50
2017-06-05T13:30:57.300Z,18.60
2017-06-05T13:33:25.390Z,18.70
2017-06-05T13:35:53.472Z,18.80
2017-06-05T13:38:21.566Z,18.80
2017-06-05T13:40:49.651Z,18.70
2017-06-05T13:43:17.836Z,18.30
2017-06-05T13:45:45.919Z,18.30
2017-06-05T13:48:14.009Z,18.30
2017-06-05T13:50:42.253Z,18.20
2017-06-05T13:53:10.349Z,18.10
2017-06-05T13:55:38.439Z,18.10
2017-06-05T13:58:06.536Z,18.00
2017-06-05T14:00:34.625Z,18.00
2017-06-05T14:03:02.727Z,17.90
2017-06-05T14:05:30.844Z,17.90
2017-06-05T14:07:59.034Z,17.80
2017-06-05T14:10:27.114Z,17.70
2017-06-05T14:12:55.215Z,17.50
2017-06-05T14:15:23.304Z,17.10
2017-06-05T14:17:51.391Z,16.90
2017-06-05T14:20:19.579Z,17.00
2017-06-05T14:22:47.673Z,17.10
2017-06-05T14:25:15.751Z,17.00
2017-06-05T14:27:44.733Z,17.10
2017-06-05T14:30:12.815Z,17.10
2017-06-05T14:32:40.908Z,17.00
2017-06-05T14:35:08.995Z,17.00
2017-06-05T14:37:37.091Z,17.00
2017-06-05T14:40:05.185Z,17.00
2017-06-05T14:42:33.311Z,17.00
2017-06-05T14:45:01.408Z,17.00
2017-06-05T14:47:29.699Z,17.00
2017-06-05T14:49:57.794Z,17.00
2017-06-05T14:52:25.954Z,17.10
2017-06-05T14:54:54.808Z,17.00
2017-06-05T14:57:22.904Z,17.00
2017-06-05T14:59:50.987Z,16.90
2017-06-05T15:02:19.966Z,16.80
2017-06-05T15:04:48.241Z,16.80
2017-06-05T15:07:16.327Z,16.90
2017-06-05T15:09:44.452Z,16.90
2017-06-05T15:12:12.543Z,16.70
2017-06-05T15:14:40.643Z,16.70
2017-06-05T15:17:09.504Z,16.70
2017-06-05T15:19:37.684Z,16.70
2017-06-05T15:22:05.834Z,16.60
2017-06-05T15:24:33.947Z,16.60
2017-06-05T15:27:03.507Z,16.60
2017-06-05T15:29:31.613Z,16.60
2017-06-05T15:31:59.877Z,16.70
2017-06-05T15:34:28.152Z,16.70
2017-06-05T15:36:56.251Z,16.70
2017-06-05T15:39:24.338Z,16.70
2017-06-05T15:41:52.461Z,16.80
2017-06-05T15:44:20.543Z,16.70
2017-06-05T15:46:48.627Z,16.80
2017-06-05T15:49:16.721Z,16.80
2017-06-05T15:51:44.812Z,16.80
2017-06-05T15:54:12.939Z,16.70
2017-06-05T15:56:41.062Z,16.70
2017-06-05T15:59:09.269Z,16.80
2017-06-05T16:01:37.346Z,16.70
2017-06-05T16:04:05.607Z,16.70
2017-06-05T16:06:33.767Z,16.70
2017-06-05T16:09:01.896Z,16.70
2017-06-05T16:11:30.219Z,16.60
2017-06-05T16:13:58.494Z,16.60
2017-06-05T16:16:26.772Z,16.60
2017-06-05T16:18:55.039Z,16.60
2017-06-05T16:21:23.131Z,16.60
2017-06-05T16:23:51.392Z,16.60
2017-06-05T16:26:19.495Z,16.60
2017-06-05T16:28:47.591Z,16.60
2017-06-05T16:31:15.807Z,16.60
2017-06-05T16:33:43.919Z,16.60
2017-06-05T16:36:12.008Z,16.50
2017-06-05T16:38:40.103Z,16.60
2017-06-05T16:41:08.199Z,16.50
2017-06-05T16:43:36.289Z,16.40
2017-06-05T16:46:04.400Z,16.50
2017-06-05T16:48:32.492Z,16.60
2017-06-05T16:51:00.588Z,16.20
2017-06-05T16:53:28.702Z,16.30
2017-06-05T16:55:56.793Z,16.40
2017-06-05T16:58:24.885Z,16.50
2017-06-05T17:00:52.980Z,16.50
2017-06-05T17:03:21.064Z,16.40
2017-06-05T17:05:49.169Z,16.40
2017-06-05T17:08:17.260Z,16.50
2017-06-05T17:10:45.369Z,16.50
2017-06-05T17:13:13.448Z,16.40
2017-06-05T17:15:41.557Z,16.40
2017-06-05T17:18:09.659Z,16.40
2017-06-05T17:20:37.748Z,16.40
2017-06-05T17:23:05.843Z,16.30
2017-06-05T17:25:33.944Z,16.30
2017-06-05T17:28:02.044Z,16.30
2017-06-05T17:30:30.129Z,16.20
2017-06-05T17:32:58.216Z,16.10
2017-06-05T17:35:26.303Z,16.20
2017-06-05T17:37:54.616Z,16.30
2017-06-05T17:40:22.695Z,16.20
2017-06-05T17:42:51.680Z,16.10
2017-06-05T17:45:19.949Z,16.00
2017-06-05T17:47:48.049Z,16.00
2017-06-05T17:50:16.171Z,16.00
2017-06-05T17:52:44.267Z,16.00
2017-06-05T17:55:12.361Z,15.90
2017-06-05T17:57:40.452Z,15.80
2017-06-05T18:00:08.542Z,15.90
2017-06-05T18:02:36.633Z,15.90
2017-06-05T18:05:04.723Z,15.90
2017-06-05T18:07:32.845Z,15.80
2017-06-05T18:10:00.909Z,15.80
2017-06-05T18:12:29.015Z,15.70
2017-06-05T18:14:57.107Z,15.80
2017-06-05T18:17:25.194Z,15.80
2017-06-05T18:19:53.283Z,15.80
2017-06-05T18:22:21.513Z,15.80
2017-06-05T18:24:49.675Z,15.70
2017-06-05T18:27:17.839Z,15.90
2017-06-05T18:29:45.936Z,15.70
2017-06-05T18:32:14.035Z,15.70
2017-06-05T18:34:42.155Z,15.70
2017-06-05T18:37:10.267Z,15.80
2017-06-05T18:39:38.562Z,15.90
2017-06-05T18:42:06.644Z,15.80
2017-06-05T18:44:34.753Z,15.70
2017-06-05T18:47:03.782Z,15.50
2017-06-05T18:49:31.905Z,15.30
2017-06-05T18:52:00.019Z,15.30
2017-06-05T18:54:28.198Z,15.40
2017-06-05T18:56:56.307Z,15.40
2017-06-05T18:59:24.428Z,15.40
2017-06-05T19:01:52.556Z,15.30
2017-06-05T19:04:20.652Z,15.10
2017-06-05T19:06:48.737Z,15.00
2017-06-05T19:09:17.603Z,15.00
2017-06-05T19:11:45.831Z,14.90
2017-06-05T19:14:14.110Z,14.90
2017-06-05T19:16:42.187Z,14.90
2017-06-05T19:19:10.289Z,14.90
2017-06-05T19:21:38.383Z,14.90
2017-06-05T19:24:06.745Z,15.00
2017-06-05T19:26:34.839Z,14.70
2017-06-05T19:29:02.926Z,14.80
2017-06-05T19:31:31.014Z,14.60
2017-06-05T19:33:59.104Z,14.40
2017-06-05T19:36:27.215Z,14.50
2017-06-05T19:38:55.305Z,14.50
2017-06-05T19:41:23.408Z,14.40
2017-06-05T19:43:51.523Z,14.40
2017-06-05T19:46:19.679Z,14.20
2017-06-05T19:48:47.939Z,14.30
2017-06-05T19:51:16.104Z,14.10
2017-06-05T19:53:44.213Z,14.20
2017-06-05T19:56:12.296Z,14.20
2017-06-05T19:58:40.411Z,14.20
2017-06-05T20:01:08.491Z,14.10
2017-06-05T20:03:36.581Z,14.10
2017-06-05T20:06:04.668Z,14.20
2017-06-05T20:08:32.748Z,14.40
2017-06-05T20:11:00.832Z,14.40
2017-06-05T20:13:28.958Z,14.40
2017-06-05T20:15:57.051Z,14.10
2017-06-05T20:18:25.144Z,14.20
2017-06-05T20:20:53.256Z,14.30
2017-06-05T20:23:21.386Z,14.40
2017-06-05T20:25:49.472Z,14.60
2017-06-05T20:28:18.457Z,14.60
2017-06-05T20:30:46.544Z,14.60
2017-06-05T20:33:14.635Z,14.40
2017-06-05T20:35:42.719Z,14.10
2017-06-05T20:38:48.418Z,14.00
2017-06-05T20:41:16.567Z,13.50
2017-06-05T20:43:44.760Z,13.60
2017-06-05T20:46:12.922Z,13.80
2017-06-05T20:48:41.102Z,14.00
2017-06-05T20:51:09.187Z,14.10
2017-06-05T20:53:37.273Z,14.20
2017-06-05T20:56:05.357Z,14.10
2017-06-05T20:58:33.454Z,14.10
2017-06-05T21:01:01.547Z,13.90
2017-06-05T21:03:29.635Z,13.80
2017-06-05T21:05:57.766Z,13.90
2017-06-05T21:08:25.847Z,13.90
2017-06-05T21:10:53.932Z,14.10
2017-06-05T21:13:22.024Z,13.80
2017-06-05T21:15:50.108Z,13.20
2017-06-05T21:18:18.203Z,13.00
2017-06-05T21:20:46.295Z,13.00
2017-06-05T21:23:14.705Z,13.00
2017-06-05T21:25:42.780Z,12.90
2017-06-05T21:28:10.883Z,13.00
2017-06-05T21:30:38.976Z,13.00
2017-06-05T21:33:07.052Z,13.20
2017-06-05T21:35:35.143Z,13.30
2017-06-05T21:38:03.333Z,13.20
2017-06-05T21:40:31.432Z,13.00
2017-06-05T21:42:59.515Z,13.20
2017-06-05T21:45:27.612Z,13.30
2017-06-05T21:47:55.700Z,13.40
2017-06-05T21:50:23.788Z,13.60
2017-06-05T21:52:51.876Z,13.70
2017-06-05T21:55:19.964Z,13.70
2017-06-05T21:57:48.073Z,13.60
2017-06-05T22:00:16.159Z,13.50
2017-06-05T22:02:44.252Z,13.60
2017-06-05T22:05:12.345Z,13.50
2017-06-05T22:07:40.443Z,13.50
2017-06-05T22:10:08.531Z,13.30
2017-06-05T22:12:36.621Z,13.20
2017-06-05T22:15:04.707Z,13.30
2017-06-05T22:17:32.799Z,13.10
2017-06-05T22:20:00.893Z,13.10
2017-06-05T22:22:28.974Z,13.00
2017-06-05T22:24:57.084Z,13.10
2017-06-05T22:27:25.185Z,13.20
2017-06-05T22:29:53.270Z,13.30
2017-06-05T22:32:21.366Z,13.40
2017-06-05T22:34:49.487Z,13.40
2017-06-05T22:37:17.583Z,13.20
2017-06-05T22:39:45.682Z,13.20
2017-06-05T22:42:13.763Z,13.10
2017-06-05T22:44:41.849Z,13.10
2017-06-05T22:47:09.945Z,13.20
2017-06-05T22:49:38.029Z,13.20
2017-06-05T22:52:06.125Z,13.30
2017-06-05T22:54:34.221Z,13.40
2017-06-05T22:57:02.299Z,13.40
2017-06-05T22:59:30.393Z,13.20
2017-06-05T23:01:58.473Z,13.20
2017-06-05T23:04:26.583Z,13.20
2017-06-05T23:06:54.675Z,13.20
2017-06-05T23:09:22.759Z,13.20
2017-06-05T23:11:50.861Z,13.30
2017-06-05T23:14:18.943Z,13.30
2017-06-05T23:16:47.037Z,13.20
2017-06-05T23:19:15.119Z,13.10
2017-06-05T23:21:43.218Z,13.10
2017-06-05T23:24:11.294Z,13.10
2017-06-05T23:26:39.412Z,13.10
2017-06-05T23:29:07.503Z,13.10
2017-06-05T23:31:35.592Z,13.20
2017-06-05T23:34:03.680Z,13.10
2017-06-05T23:36:31.781Z,13.00
2017-06-05T23:38:59.981Z,13.10
2017-06-05T23:41:28.062Z,13.00
2017-06-05T23:43:56.157Z,13.00
2017-06-05T23:46:24.248Z,12.90
2017-06-05T23:48:52.333Z,12.60
2017-06-05T23:51:20.419Z,12.30
2017-06-05T23:53:48.547Z,12.40
2017-06-05T23:56:16.647Z,12.30
2017-06-05T23:58:44.741Z,12.40
